createdAt,value
2018-07-15T00:02:58.032Z,18.90
2018-07-15T00:08:01.051Z,18.80
2018-07-15T00:13:04.100Z,18.80
2018-07-15T00:18:07.160Z,18.80
2018-07-15T00:23:10.163Z,18.70
2018-07-15T00:28:13.169Z,18.70
2018-07-15T00:33:16.217Z,18.70
2018-07-15T00:38:19.235Z,18.70
2018-07-15T00:43:22.254Z,18.60
2018-07-15T00:48:25.284Z,18.60
2018-07-15T00:53:28.439Z,18.50
2018-07-15T00:58:31.431Z,18.50
2018-07-15T01:03:34.979Z,18.40
2018-07-15T01:08:37.997Z,18.30
2018-07-15T01:13:41.021Z,18.20
2018-07-15T01:18:44.043Z,18.20
2018-07-15T01:23:47.039Z,18.10
2018-07-15T01:28:50.177Z,18.10
2018-07-15T01:33:53.248Z,18.00
2018-07-15T01:38:56.255Z,17.80
2018-07-15T01:43:59.255Z,17.80
2018-07-15T01:49:02.280Z,17.70
2018-07-15T01:54:05.394Z,17.60
2018-07-15T01:59:08.392Z,17.60
2018-07-15T02:04:11.427Z,17.50
2018-07-15T02:09:14.470Z,17.40
2018-07-15T02:14:17.479Z,17.40
2018-07-15T02:19:20.492Z,17.30
2018-07-15T02:24:23.588Z,17.30
2018-07-15T02:29:26.773Z,17.20
2018-07-15T02:39:32.695Z,17.10
2018-07-15T02:44:35.811Z,17.00
2018-07-15T02:49:38.816Z,17.10
2018-07-15T02:54:41.814Z,17.00
2018-07-15T02:59:44.831Z,17.00
2018-07-15T03:04:47.995Z,16.90
2018-07-15T03:09:51.023Z,16.90
2018-07-15T03:14:54.256Z,16.90
2018-07-15T03:19:57.247Z,16.90
2018-07-15T03:25:00.244Z,16.80
2018-07-15T03:30:03.247Z,16.80
2018-07-15T03:35:06.347Z,16.80
2018-07-15T03:40:09.351Z,16.80
2018-07-15T03:45:12.358Z,16.80
2018-07-15T03:50:15.368Z,16.90
2018-07-15T03:55:18.376Z,16.90
2018-07-15T04:00:21.410Z,16.90
2018-07-15T04:05:24.470Z,17.00
2018-07-15T04:10:27.492Z,17.00
2018-07-15T04:15:30.618Z,17.10
2018-07-15T04:20:35.143Z,17.10
2018-07-15T04:25:38.160Z,17.30
2018-07-15T04:30:41.196Z,17.50
2018-07-15T04:35:44.239Z,17.50
2018-07-15T04:40:47.268Z,17.50
2018-07-15T04:45:50.291Z,17.60
2018-07-15T04:50:53.351Z,17.60
2018-07-15T04:55:56.451Z,17.60
2018-07-15T05:00:59.520Z,17.70
2018-07-15T05:06:02.568Z,17.90
2018-07-15T05:11:05.615Z,17.90
2018-07-15T05:16:08.785Z,17.80
2018-07-15T05:21:11.805Z,17.90
2018-07-15T05:26:14.844Z,18.00
2018-07-15T05:31:17.895Z,18.10
2018-07-15T05:36:21.040Z,18.10
2018-07-15T05:41:24.167Z,18.30
2018-07-15T05:46:27.211Z,18.30
2018-07-15T05:51:30.231Z,18.50
2018-07-15T05:56:33.280Z,18.50
2018-07-15T06:01:36.302Z,18.80
2018-07-15T06:06:39.349Z,18.90
2018-07-15T06:11:42.408Z,19.10
2018-07-15T06:16:45.439Z,19.40
2018-07-15T06:21:48.449Z,19.50
2018-07-15T06:26:51.467Z,19.60
2018-07-15T06:31:54.640Z,19.70
2018-07-15T06:36:57.623Z,19.50
2018-07-15T06:42:00.642Z,19.60
2018-07-15T06:47:03.644Z,19.80
2018-07-15T06:52:06.648Z,19.80
2018-07-15T06:57:09.659Z,20.00
2018-07-15T07:02:12.671Z,20.10
2018-07-15T07:07:15.784Z,19.90
2018-07-15T07:12:18.757Z,20.00
2018-07-15T07:17:21.975Z,20.20
2018-07-15T07:22:24.970Z,20.40
2018-07-15T07:27:27.970Z,20.50
2018-07-15T07:32:31.033Z,20.60
2018-07-15T07:37:34.082Z,20.90
2018-07-15T07:42:37.152Z,21.10
2018-07-15T07:47:40.180Z,21.10
2018-07-15T07:52:43.267Z,20.90
2018-07-15T07:57:46.288Z,20.90
2018-07-15T08:02:49.307Z,20.40
2018-07-15T08:07:52.346Z,20.80
2018-07-15T08:12:55.599Z,20.70
2018-07-15T08:17:58.612Z,20.90
2018-07-15T08:23:01.623Z,21.30
2018-07-15T08:28:04.644Z,21.50
2018-07-15T08:33:07.720Z,21.20
2018-07-15T08:38:10.730Z,21.10
2018-07-15T08:43:13.824Z,21.50
2018-07-15T08:48:16.932Z,21.90
2018-07-15T08:53:19.981Z,22.10
2018-07-15T08:58:23.007Z,22.30
2018-07-15T09:03:26.166Z,22.20
2018-07-15T09:08:29.096Z,22.20
2018-07-15T09:18:34.964Z,22.60
2018-07-15T09:23:38.008Z,22.60
2018-07-15T09:28:41.055Z,22.80
2018-07-15T09:33:44.087Z,23.30
2018-07-15T09:38:47.824Z,23.10
2018-07-15T09:43:50.840Z,23.60
2018-07-15T09:48:53.888Z,24.60
2018-07-15T09:53:56.946Z,24.80
2018-07-15T09:58:59.981Z,25.40
2018-07-15T10:04:02.998Z,24.50
2018-07-15T10:09:06.530Z,24.40
2018-07-15T10:14:09.563Z,24.80
2018-07-15T10:19:12.624Z,25.10
2018-07-15T10:24:15.734Z,24.90
2018-07-15T10:29:18.750Z,24.70
2018-07-15T10:34:21.779Z,24.30
2018-07-15T10:39:24.840Z,23.70
2018-07-15T10:44:27.855Z,24.10
2018-07-15T10:49:30.855Z,24.30
2018-07-15T10:54:34.251Z,24.30
2018-07-15T10:59:37.301Z,24.80
2018-07-15T11:04:40.308Z,23.90
2018-07-15T11:09:43.343Z,23.50
2018-07-15T11:14:46.374Z,23.90
2018-07-15T11:19:49.400Z,24.80
2018-07-15T11:24:52.436Z,25.80
2018-07-15T11:29:55.484Z,25.40
2018-07-15T11:34:58.506Z,25.00
2018-07-15T11:45:04.468Z,26.10
2018-07-15T11:50:07.496Z,26.90
2018-07-15T11:55:10.600Z,27.50
2018-07-15T12:00:13.630Z,27.70
2018-07-15T12:05:18.056Z,28.10
2018-07-15T12:10:21.197Z,28.40
2018-07-15T12:15:24.247Z,28.80
2018-07-15T12:20:27.280Z,29.00
2018-07-15T12:25:30.308Z,28.70
2018-07-15T12:30:33.405Z,28.10
2018-07-15T12:35:36.437Z,27.40
2018-07-15T12:40:39.471Z,27.50
2018-07-15T12:45:42.603Z,28.10
2018-07-15T12:50:45.632Z,28.70
2018-07-15T12:55:48.683Z,29.40
2018-07-15T13:00:51.868Z,29.30
2018-07-15T13:05:55.095Z,29.60
2018-07-15T13:10:58.126Z,30.00
2018-07-15T13:21:03.980Z,30.50
2018-07-15T13:26:07.034Z,30.30
2018-07-15T13:31:10.066Z,30.10
2018-07-15T13:36:13.071Z,29.20
2018-07-15T13:41:16.091Z,28.50
2018-07-15T13:46:19.202Z,29.00
2018-07-15T13:51:22.219Z,29.90
2018-07-15T13:56:25.300Z,29.60
2018-07-15T14:01:29.577Z,29.50
2018-07-15T14:06:32.643Z,30.00
2018-07-15T14:11:35.659Z,30.60
2018-07-15T14:16:38.720Z,31.20
2018-07-15T14:21:41.755Z,30.50
2018-07-15T14:26:44.796Z,30.80
2018-07-15T14:31:48.147Z,30.80
2018-07-15T14:36:51.176Z,31.00
2018-07-15T14:41:54.208Z,31.30
2018-07-15T14:46:57.335Z,31.50
2018-07-15T14:52:00.504Z,31.20
2018-07-15T14:57:04.128Z,31.20
2018-07-15T15:02:07.583Z,31.20
2018-07-15T15:07:11.039Z,30.70
2018-07-15T15:12:14.067Z,30.60
2018-07-15T15:17:17.451Z,30.10
2018-07-15T15:22:20.776Z,30.10
2018-07-15T15:27:23.999Z,29.90
2018-07-15T15:32:27.054Z,30.20
2018-07-15T15:37:30.383Z,30.30
2018-07-15T15:42:33.450Z,30.40
2018-07-15T15:47:36.760Z,29.80
2018-07-15T15:52:40.092Z,30.30
2018-07-15T15:57:43.186Z,30.70
2018-07-15T16:02:46.394Z,31.10
2018-07-15T16:07:49.455Z,30.70
2018-07-15T16:12:52.478Z,31.00
2018-07-15T16:17:55.514Z,31.00
2018-07-15T16:22:58.551Z,31.00
2018-07-15T16:28:01.649Z,31.00
2018-07-15T16:33:05.253Z,30.70
2018-07-15T16:38:08.412Z,30.30
2018-07-15T16:43:11.501Z,30.40
2018-07-15T16:48:14.609Z,30.50
2018-07-15T16:53:17.976Z,30.70
2018-07-15T16:58:21.123Z,30.50
2018-07-15T17:03:24.738Z,30.30
2018-07-15T17:08:27.800Z,29.80
2018-07-15T17:13:30.843Z,29.40
2018-07-15T17:18:33.874Z,29.60
2018-07-15T17:23:36.943Z,29.60
2018-07-15T17:28:39.959Z,29.30
2018-07-15T17:33:43.132Z,29.20
2018-07-15T17:38:46.124Z,29.20
2018-07-15T17:43:49.377Z,29.30
2018-07-15T17:48:52.489Z,29.20
2018-07-15T17:53:55.576Z,29.00
2018-07-15T17:58:58.630Z,28.70
2018-07-15T18:04:01.694Z,28.60
2018-07-15T18:09:05.593Z,28.60
2018-07-15T18:14:08.636Z,28.40
2018-07-15T18:19:11.746Z,27.80
2018-07-15T18:24:14.784Z,27.40
2018-07-15T18:29:17.803Z,27.20
2018-07-15T18:34:20.849Z,26.90
2018-07-15T18:39:23.999Z,26.80
2018-07-15T18:44:27.101Z,26.70
2018-07-15T18:49:30.127Z,26.50
2018-07-15T18:54:33.237Z,26.30
2018-07-15T18:59:36.266Z,26.10
2018-07-15T19:04:39.420Z,26.00
2018-07-15T19:09:42.484Z,25.90
2018-07-15T19:14:45.564Z,25.90
2018-07-15T19:19:48.635Z,25.80
2018-07-15T19:24:51.782Z,25.70
2018-07-15T19:29:54.792Z,25.60
2018-07-15T19:34:57.927Z,25.50
2018-07-15T19:40:00.975Z,25.30
2018-07-15T19:45:04.073Z,25.30
2018-07-15T19:50:07.127Z,25.10
2018-07-15T19:55:10.207Z,25.00
2018-07-15T20:00:13.321Z,24.80
2018-07-15T20:05:16.325Z,24.60
2018-07-15T20:10:19.348Z,24.40
2018-07-15T20:15:22.355Z,24.20
2018-07-15T20:20:25.487Z,24.10
2018-07-15T20:25:28.510Z,24.00
2018-07-15T20:30:31.627Z,23.80
2018-07-15T20:35:34.660Z,23.60
2018-07-15T20:40:37.697Z,23.50
2018-07-15T20:45:40.731Z,23.30
2018-07-15T20:50:43.767Z,23.20
2018-07-15T20:55:46.788Z,23.10
2018-07-15T21:00:49.822Z,22.90
2018-07-15T21:05:52.849Z,22.80
2018-07-15T21:10:56.029Z,22.70
2018-07-15T21:15:59.071Z,22.60
2018-07-15T21:21:02.087Z,22.40
2018-07-15T21:26:05.113Z,22.20
2018-07-15T21:31:08.191Z,22.10
2018-07-15T21:36:11.193Z,22.00
2018-07-15T21:41:14.212Z,22.00
2018-07-15T21:46:17.349Z,21.90
2018-07-15T21:51:20.470Z,21.80
2018-07-15T21:56:23.439Z,21.70
2018-07-15T22:01:33.145Z,21.70
2018-07-15T22:06:47.884Z,21.80
2018-07-15T22:11:50.933Z,21.70
2018-07-15T22:16:53.961Z,21.70
2018-07-15T22:21:57.041Z,21.70
2018-07-15T22:27:00.054Z,21.70
2018-07-15T22:32:03.085Z,21.70
2018-07-15T22:37:06.103Z,21.70
2018-07-15T22:42:09.131Z,21.70
2018-07-15T22:47:12.184Z,21.60
2018-07-15T22:52:15.199Z,21.50
2018-07-15T22:57:18.255Z,21.50
2018-07-15T23:02:21.437Z,21.40
2018-07-15T23:07:24.578Z,21.40
2018-07-15T23:17:30.571Z,21.20
2018-07-15T23:22:33.599Z,21.20
2018-07-15T23:27:36.675Z,21.20
2018-07-15T23:32:39.700Z,21.20
2018-07-15T23:37:42.718Z,21.20
2018-07-15T23:42:45.739Z,21.20
2018-07-15T23:47:48.758Z,21.20
2018-07-15T23:52:52.062Z,21.20
2018-07-15T23:57:55.263Z,21.20
